Time;durP1;ratioP1;P1;durP2;ratioP2;P2;SDS_P1;SDS_P2;PMS_P1;PMS_P2;Temp;Humidity;BMP_temperature;BMP_pressure;BME280_temperature;BME280_humidity;BME280_pressure;Samples;Min_cycle;Max_cycle;Signal;HPM_P1;HPM_P2
2023/10/01 00:00:12;;;;;;;;;18.67;14.00;;;;;18.47;63.49;101995.56;5117762;27;45448;-66
2023/10/01 00:02:41;;;;;;;;;24.67;17.67;;;;;18.46;63.60;102007.97;5116928;27;45454;-66
2023/10/01 00:05:08;;;;;;;;;18.33;15.67;;;;;18.34;63.62;101995.69;5118610;27;45499;-65
2023/10/01 00:07:37;;;;;;;;;18.33;13.67;;;;;18.39;63.74;102014.22;5117712;27;45406;-66
2023/10/01 00:10:11;;;;;;;;;19.33;14.67;;;;;18.29;64.26;102012.53;5133748;27;45642;-66
2023/10/01 00:12:38;;;;;;;;;17.00;14.00;;;;;18.19;64.03;101988.75;5117202;27;46970;-67
2023/10/01 00:15:06;;;;;;;;;20.00;14.67;;;;;18.19;64.48;102006.44;5118014;27;45505;-67
2023/10/01 00:17:32;;;;;;;;;18.33;15.33;;;;;18.21;64.50;102017.91;5108857;27;45488;-66
2023/10/01 00:20:00;;;;;;;;;25.33;15.33;;;;;18.20;64.27;102024.13;5116691;27;46013;-66
2023/10/01 00:22:26;;;;;;;;;21.00;15.33;;;;;18.17;64.79;102021.47;5117689;27;45522;-67
2023/10/01 00:24:52;;;;;;;;;23.50;16.00;;;;;18.16;65.02;102020.59;5115659;27;45478;-66
2023/10/01 00:27:18;;;;;;;;;22.33;18.33;;;;;18.01;64.61;101987.16;5107969;27;45920;-67
2023/10/01 00:29:50;;;;;;;;;23.33;13.00;;;;;18.10;64.48;101987.97;5116877;27;45412;-69
2023/10/01 00:32:18;;;;;;;;;23.33;16.33;;;;;18.23;64.45;102018.78;5110949;27;45899;-66
2023/10/01 00:34:44;;;;;;;;;18.67;13.33;;;;;17.87;64.28;101944.00;5128671;27;45546;-66
2023/10/01 00:37:32;;;;;;;;;19.33;17.00;;;;;18.30;64.04;102012.53;5100416;27;45808;-68
2023/10/01 00:40:00;;;;;;;;;24.67;17.67;;;;;18.17;64.66;102017.06;5115434;27;45324;-66
2023/10/01 00:42:28;;;;;;;;;18.33;14.33;;;;;18.08;64.86;102019.81;5117149;27;45462;-66
2023/10/01 00:44:57;;;;;;;;;23.33;18.33;;;;;18.04;64.93;102004.81;5113572;27;45711;-66
2023/10/01 00:47:27;;;;;;;;;20.67;14.67;;;;;17.87;64.89;101978.47;5113402;27;46368;-67
2023/10/01 00:49:57;;;;;;;;;20.67;15.67;;;;;17.99;65.06;101988.94;5098056;27;45595;-65
2023/10/01 00:52:25;;;;;;;;;16.67;15.00;;;;;18.01;65.27;102003.06;5113790;27;46175;-67
2023/10/01 00:54:51;;;;;;;;;21.67;17.00;;;;;17.96;65.59;102002.25;5114932;27;45694;-66
2023/10/01 00:57:17;;;;;;;;;22.33;17.67;;;;;17.88;66.04;101997.88;5116302;27;46193;-66
2023/10/01 00:59:44;;;;;;;;;20.67;14.67;;;;;17.90;65.79;101998.75;5119799;27;45505;-67
2023/10/01 01:02:15;;;;;;;;;17.33;13.33;;;;;17.93;65.49;101988.13;5120009;27;45482;-66
2023/10/01 01:04:45;;;;;;;;;21.67;17.00;;;;;17.97;65.61;101984.56;5120523;27;45583;-64
2023/10/01 01:07:20;;;;;;;;;27.00;20.33;;;;;17.94;65.71;101984.59;5112486;27;45569;-67
2023/10/01 01:09:49;;;;;;;;;22.67;17.33;;;;;17.93;65.67;101985.47;5115219;27;45422;-67
2023/10/01 01:12:18;;;;;;;;;19.67;16.67;;;;;17.80;65.93;101974.97;5120228;27;45318;-65
2023/10/01 01:14:48;;;;;;;;;24.33;18.00;;;;;17.85;66.19;101995.28;5119803;27;45549;-66
2023/10/01 01:17:14;;;;;;;;;21.67;17.00;;;;;17.80;65.94;101982.94;5109220;27;45717;-65
2023/10/01 01:19:42;;;;;;;;;22.33;14.33;;;;;17.90;65.95;101978.44;5106528;27;45685;-65
2023/10/01 01:22:09;;;;;;;;;16.00;15.33;;;;;17.92;65.64;101983.72;5119106;27;45366;-67
2023/10/01 01:24:36;;;;;;;;;22.00;20.33;;;;;17.80;66.17;101979.38;5120049;27;45576;-66
2023/10/01 01:27:06;;;;;;;;;20.67;18.33;;;;;17.67;66.49;101965.31;5118456;27;45521;-66
2023/10/01 01:29:40;;;;;;;;;21.33;18.00;;;;;17.77;66.54;101974.06;5117485;27;45725;-67
2023/10/01 01:32:15;;;;;;;;;24.67;19.67;;;;;17.60;66.62;101951.22;5119964;27;45281;-66
2023/10/01 01:34:44;;;;;;;;;24.00;16.00;;;;;17.75;66.56;101970.59;5118355;27;45368;-66
2023/10/01 01:37:30;;;;;;;;;21.00;18.33;;;;;17.72;66.74;101962.63;5120665;27;46086;-66
2023/10/01 01:39:57;;;;;;;;;24.33;17.67;;;;;17.67;66.89;101951.19;5121497;27;45415;-66
2023/10/01 01:42:24;;;;;;;;;25.33;12.33;;;;;17.68;66.91;101950.31;5120764;27;45371;-64
2023/10/01 01:45:15;;;;;;;;;23.33;17.00;;;;;17.64;67.14;101952.09;5119863;27;45306;-66
2023/10/01 01:47:36;;;;;;;;;25.67;16.00;;;;;17.60;67.31;101945.94;5114041;27;46199;-65
2023/10/01 01:50:49;;;;;;;;;25.00;18.67;;;;;17.53;67.36;101949.53;5113147;27;45510;-66
2023/10/01 01:52:52;;;;;;;;;24.00;19.00;;;;;17.49;67.62;101944.28;5101732;27;45505;-66
2023/10/01 01:55:29;;;;;;;;;20.67;16.33;;;;;17.43;67.91;101942.56;5118659;27;45558;-65
2023/10/01 01:58:15;;;;;;;;;21.33;17.67;;;;;17.36;67.99;101938.19;5118318;27;45401;-65
2023/10/01 02:03:32;;;;;;;;;18.00;14.00;;;;;17.46;67.88;101950.47;5119507;27;45409;-65
2023/10/01 02:05:59;;;;;;;;;24.33;19.33;;;;;17.37;67.94;101948.78;5118655;27;45781;-65
2023/10/01 02:08:24;;;;;;;;;25.67;16.33;;;;;17.28;68.23;101953.25;5119096;27;45490;-66
2023/10/01 02:10:55;;;;;;;;;23.33;14.67;;;;;17.28;68.36;101954.13;5116195;27;45419;-66
2023/10/01 02:13:25;;;;;;;;;27.33;18.33;;;;;17.24;68.15;101941.78;5118728;27;45502;-66
2023/10/01 02:15:52;;;;;;;;;23.33;19.67;;;;;17.24;68.58;101952.38;5118553;27;45387;-66
2023/10/01 02:18:18;;;;;;;;;26.67;19.33;;;;;17.20;68.64;101948.00;5105001;27;46908;-66
2023/10/01 02:20:56;;;;;;;;;20.00;20.00;;;;;17.18;69.02;101949.78;5119397;27;45481;-66
2023/10/01 02:23:26;;;;;;;;;24.67;18.33;;;;;17.09;69.12;101952.50;5119414;27;45388;-66
2023/10/01 02:25:53;;;;;;;;;18.67;12.33;;;;;17.12;69.23;101955.13;5119993;27;45446;-66
2023/10/01 02:28:19;;;;;;;;;25.33;14.33;;;;;17.09;69.26;101960.44;5110335;27;45605;-66
2023/10/01 02:30:44;;;;;;;;;26.00;17.33;;;;;16.92;69.82;101942.88;5109566;27;45573;-67
2023/10/01 02:33:18;;;;;;;;;18.33;17.00;;;;;16.85;70.30;101941.16;5119706;27;45392;-66
2023/10/01 02:35:50;;;;;;;;;23.00;18.00;;;;;16.71;70.56;101941.16;5120617;27;45596;-66
2023/10/01 02:41:25;;;;;;;;;23.33;20.00;;;;;16.65;71.21;101950.88;5074653;28;45576;-66
2023/10/01 02:43:52;;;;;;;;;27.00;20.00;;;;;16.67;71.29;101955.28;5096112;27;45447;-66
2023/10/01 02:46:26;;;;;;;;;24.33;17.67;;;;;16.68;71.60;101958.81;5119713;27;45298;-68
2023/10/01 02:48:59;;;;;;;;;22.33;17.67;;;;;16.65;71.34;101962.34;5118621;27;46604;-67
2023/10/01 02:51:38;;;;;;;;;25.00;21.33;;;;;16.43;71.75;101926.28;5118063;27;45388;-66
2023/10/01 02:54:11;;;;;;;;;19.67;18.33;;;;;16.63;71.59;101950.88;5104181;27;46180;-65
2023/10/01 02:56:52;;;;;;;;;19.33;17.00;;;;;16.60;71.31;101942.09;5119136;27;45470;-65
2023/10/01 02:59:18;;;;;;;;;26.33;19.33;;;;;16.73;70.92;101954.41;5118633;27;45697;-65
2023/10/01 03:01:47;;;;;;;;;18.00;10.67;;;;;16.84;70.70;101952.59;5110397;27;45617;-68
2023/10/01 03:04:18;;;;;;;;;17.67;13.00;;;;;16.89;70.47;101945.50;5113290;27;45387;-66
2023/10/01 03:06:55;;;;;;;;;23.67;15.67;;;;;16.85;70.45;101946.44;5114433;27;45549;-66
2023/10/01 03:09:31;;;;;;;;;21.00;18.00;;;;;16.85;70.41;101940.28;5098846;27;45775;-66
2023/10/01 03:15:00;;;;;;;;;19.00;17.00;;;;;16.85;70.39;101942.91;5118892;27;45473;-65
2023/10/01 03:17:38;;;;;;;;;23.67;19.00;;;;;16.74;71.23;101953.50;5128990;27;45431;-66
2023/10/01 03:22:53;;;;;;;;;21.67;17.33;;;;;16.59;71.58;101945.63;5118429;27;45290;-65
2023/10/01 03:25:20;;;;;;;;;18.00;16.33;;;;;16.59;71.38;101943.88;5119178;27;45417;-66
2023/10/01 03:27:45;;;;;;;;;28.67;17.67;;;;;16.58;71.78;101942.09;5120203;27;45283;-66
2023/10/01 03:30:22;;;;;;;;;22.33;16.00;;;;;16.64;71.52;101939.44;5118801;27;46184;-67
2023/10/01 03:32:47;;;;;;;;;20.00;15.67;;;;;16.63;71.49;101950.88;5118168;27;45468;-65
2023/10/01 03:35:13;;;;;;;;;23.00;17.00;;;;;16.66;71.41;101956.19;5134197;27;45400;-66
2023/10/01 03:37:39;;;;;;;;;20.67;17.67;;;;;16.67;71.32;101954.41;5104842;27;45456;-65
2023/10/01 03:40:35;;;;;;;;;21.67;20.00;;;;;16.59;71.26;101943.00;5115121;27;47617;-66
2023/10/01 03:42:54;;;;;;;;;21.00;19.67;;;;;16.63;71.41;101947.38;5117233;27;45294;-66
2023/10/01 03:47:59;;;;;;;;;24.00;18.33;;;;;16.57;71.72;101931.53;5117819;27;45593;-66
2023/10/01 03:50:25;;;;;;;;;33.00;19.33;;;;;16.41;71.98;101928.06;5112382;27;45577;-65
2023/10/01 03:52:54;;;;;;;;;23.67;17.33;;;;;16.51;71.63;101935.06;5125170;27;45601;-65
2023/10/01 03:55:27;;;;;;;;;23.67;19.00;;;;;16.46;71.91;101939.50;5117604;27;45473;-65
2023/10/01 03:58:06;;;;;;;;;19.33;17.67;;;;;16.48;71.91;101935.09;5119360;27;45436;-66
2023/10/01 04:03:03;;;;;;;;;25.33;18.67;;;;;16.45;71.35;101919.25;5117568;27;45480;-66
2023/10/01 04:05:34;;;;;;;;;26.33;21.67;;;;;16.45;71.71;101919.25;5117892;27;45580;-66
2023/10/01 04:08:11;;;;;;;;;27.33;17.33;;;;;16.51;71.86;101925.38;5118295;27;45345;-66
2023/10/01 04:10:38;;;;;;;;;26.00;20.00;;;;;16.51;71.60;101937.72;5117363;27;46187;-67
2023/10/01 04:13:20;;;;;;;;;23.00;17.67;;;;;16.46;71.86;101915.69;5117570;27;45559;-66
2023/10/01 04:15:55;;;;;;;;;24.33;17.00;;;;;16.51;72.00;101925.38;5116223;27;45354;-66
2023/10/01 04:18:21;;;;;;;;;21.33;16.67;;;;;16.44;71.74;101913.03;5117479;27;45572;-66
2023/10/01 04:23:30;;;;;;;;;22.67;17.33;;;;;16.31;72.03;101904.28;5117389;27;45503;-66
2023/10/01 04:25:56;;;;;;;;;25.67;20.67;;;;;16.41;72.10;101931.56;5118304;27;45475;-66
2023/10/01 04:28:23;;;;;;;;;26.33;17.33;;;;;16.45;71.83;101932.47;5117762;27;45694;-66
2023/10/01 04:30:52;;;;;;;;;20.33;17.00;;;;;16.41;71.99;101928.06;5105948;27;45483;-67
2023/10/01 04:33:22;;;;;;;;;19.67;14.33;;;;;16.32;72.38;101931.59;5133782;27;45603;-67
2023/10/01 04:35:55;;;;;;;;;23.00;21.33;;;;;16.24;72.89;101933.41;5121202;27;45422;-66
2023/10/01 04:38:26;;;;;;;;;21.33;14.00;;;;;16.18;73.10;101934.25;5107651;27;45582;-68
2023/10/01 04:40:52;;;;;;;;;23.33;21.00;;;;;16.08;73.51;101928.13;5120394;27;45457;-67
2023/10/01 04:43:19;;;;;;;;;25.00;19.67;;;;;16.05;73.77;101937.84;5120271;27;45390;-67
2023/10/01 04:45:45;;;;;;;;;25.00;19.00;;;;;16.03;74.42;101940.47;5120629;27;45768;-66
2023/10/01 04:48:24;;;;;;;;;21.33;20.00;;;;;15.92;74.42;101929.03;5120695;27;45553;-66
2023/10/01 04:50:54;;;;;;;;;24.00;21.00;;;;;15.97;73.84;101932.56;5113402;27;46215;-65
2023/10/01 04:53:22;;;;;;;;;19.67;18.00;;;;;15.96;74.03;101943.13;5117936;27;45393;-67
2023/10/01 04:56:01;;;;;;;;;25.00;18.67;;;;;15.99;74.11;101935.19;5137040;27;45483;-67
2023/10/01 04:58:29;;;;;;;;;22.33;21.00;;;;;16.08;73.70;101941.34;5120842;27;45411;-67
2023/10/01 05:00:55;;;;;;;;;23.67;17.67;;;;;15.99;73.61;101930.81;5118426;27;45496;-67
2023/10/01 05:03:38;;;;;;;;;22.67;17.33;;;;;16.09;73.56;101937.84;5116572;27;45274;-66
2023/10/01 05:06:09;;;;;;;;;23.33;19.67;;;;;16.07;73.83;101934.31;5127622;27;45481;-67
2023/10/01 05:08:38;;;;;;;;;24.67;20.00;;;;;15.90;73.74;101920.25;5116195;27;45290;-66
2023/10/01 05:11:11;;;;;;;;;22.00;18.00;;;;;15.93;74.30;101922.88;5117979;27;47121;-66
2023/10/01 05:13:47;;;;;;;;;23.33;18.33;;;;;15.95;73.71;101942.25;5118761;27;45426;-67
2023/10/01 05:16:18;;;;;;;;;27.67;20.67;;;;;15.80;74.24;101927.31;5120313;27;45571;-67
2023/10/01 05:18:48;;;;;;;;;25.33;21.33;;;;;15.93;73.92;101941.38;5120258;27;45383;-66
2023/10/01 05:21:18;;;;;;;;;26.67;21.00;;;;;15.97;73.86;101940.50;5113947;27;46533;-66
2023/10/01 05:23:48;;;;;;;;;20.33;19.00;;;;;15.98;74.00;101941.38;5105449;27;45864;-67
2023/10/01 05:26:20;;;;;;;;;28.00;21.00;;;;;15.97;73.98;101937.84;5119981;27;45713;-66
2023/10/01 05:28:48;;;;;;;;;22.00;20.33;;;;;15.88;74.44;101937.84;5119070;27;45482;-66
2023/10/01 05:31:24;;;;;;;;;29.33;17.33;;;;;15.75;74.39;101923.75;5134807;27;46386;-67
2023/10/01 05:33:52;;;;;;;;;31.33;19.33;;;;;15.79;74.59;101951.06;5118776;27;45284;-67
2023/10/01 05:36:19;;;;;;;;;22.00;18.67;;;;;15.82;74.51;101951.06;5104638;27;45507;-67
2023/10/01 05:38:45;;;;;;;;;22.67;16.67;;;;;15.76;74.22;101936.09;5108851;27;45471;-67
2023/10/01 05:41:15;;;;;;;;;22.00;16.00;;;;;15.85;74.47;101951.03;5119798;27;46509;-67
2023/10/01 05:43:50;;;;;;;;;23.67;16.33;;;;;15.97;74.30;101952.81;5117781;27;45887;-68
2023/10/01 05:46:22;;;;;;;;;28.67;19.33;;;;;15.98;73.90;101950.16;5105782;27;45379;-68
2023/10/01 05:48:55;;;;;;;;;19.33;18.67;;;;;15.96;73.55;101965.13;5110093;27;46116;-67
2023/10/01 05:51:30;;;;;;;;;26.33;18.00;;;;;15.90;74.27;101967.81;5113314;27;45547;-66
2023/10/01 05:53:56;;;;;;;;;20.33;16.33;;;;;15.90;74.20;101959.88;5110445;27;45401;-66
2023/10/01 05:56:22;;;;;;;;;17.33;16.00;;;;;15.83;74.06;101955.47;5110429;27;45377;-66
2023/10/01 05:58:48;;;;;;;;;22.00;17.33;;;;;15.81;74.13;101949.31;5113357;27;45688;-66
2023/10/01 06:01:16;;;;;;;;;18.33;15.67;;;;;15.84;74.18;101950.19;5116822;27;45969;-67
2023/10/01 06:03:50;;;;;;;;;20.67;18.33;;;;;15.94;74.08;101958.97;5119883;27;45451;-67
2023/10/01 06:06:25;;;;;;;;;22.33;18.67;;;;;15.80;73.96;101948.44;5119351;27;45504;-67
2023/10/01 06:08:59;;;;;;;;;24.33;18.33;;;;;15.88;73.94;101961.63;5115746;27;45511;-67
2023/10/01 06:17:00;;;;;;;;;20.67;18.00;;;;;16.08;73.44;101967.75;5121284;27;45311;-67
2023/10/01 06:19:33;;;;;;;;;22.00;19.67;;;;;15.97;73.79;101955.44;5120692;27;45432;-67
2023/10/01 06:22:16;;;;;;;;;23.67;19.00;;;;;16.06;73.46;101959.00;5108268;27;46328;-68
2023/10/01 06:24:46;;;;;;;;;21.33;20.00;;;;;16.04;73.60;101954.56;5116068;27;45601;-68
2023/10/01 06:27:13;;;;;;;;;24.00;19.67;;;;;16.15;73.12;101963.34;5112403;27;45513;-68
2023/10/01 06:29:49;;;;;;;;;16.67;14.67;;;;;16.23;72.80;101963.34;5114189;27;45641;-68
2023/10/01 06:32:19;;;;;;;;;25.00;16.00;;;;;16.31;72.94;101962.44;5111241;27;46214;-66
2023/10/01 06:34:47;;;;;;;;;20.67;18.67;;;;;16.25;72.74;101967.78;5114202;27;45577;-66
2023/10/01 06:38:08;;;;;;;;;24.00;17.67;;;;;16.20;72.97;101956.28;5110486;27;45630;-66
2023/10/01 06:40:29;;;;;;;;;21.33;20.00;;;;;15.93;73.32;101930.81;5098939;27;45478;-67
2023/10/01 06:42:58;;;;;;;;;23.67;17.00;;;;;16.19;72.92;101941.34;5112513;27;47470;-68
2023/10/01 06:45:38;;;;;;;;;19.67;17.67;;;;;16.32;72.49;101950.09;5113209;27;45467;-69
2023/10/01 06:48:14;;;;;;;;;23.00;19.00;;;;;16.32;72.31;101936.88;5112814;27;45473;-66
2023/10/01 06:50:49;;;;;;;;;14.67;11.67;;;;;16.48;72.46;101959.75;5119262;27;45489;-66
2023/10/01 06:53:14;;;;;;;;;18.67;18.00;;;;;16.53;72.02;101968.56;5119052;27;45504;-67
2023/10/01 06:55:45;;;;;;;;;25.00;18.67;;;;;16.52;72.16;101961.50;5117693;27;45396;-67
2023/10/01 06:58:13;;;;;;;;;22.33;19.00;;;;;16.60;72.04;101969.41;5118238;27;45584;-67
2023/10/01 07:00:41;;;;;;;;;19.67;17.33;;;;;16.62;71.47;101949.13;5119017;27;45584;-68
2023/10/01 07:03:21;;;;;;;;;30.00;21.00;;;;;16.74;71.27;101958.78;5118327;27;45464;-67
2023/10/01 07:05:55;;;;;;;;;23.00;17.67;;;;;16.73;71.36;101957.91;5117174;27;45312;-67
2023/10/01 07:08:32;;;;;;;;;21.67;17.67;;;;;16.81;70.54;101943.81;5118480;27;45361;-67
2023/10/01 07:11:11;;;;;;;;;26.33;19.67;;;;;16.77;70.60;101942.03;5119055;27;45739;-67
2023/10/01 07:13:38;;;;;;;;;25.00;20.33;;;;;16.98;70.34;101959.59;5118114;27;46602;-67
2023/10/01 07:16:03;;;;;;;;;27.33;17.33;;;;;17.04;70.03;101954.28;5118305;27;45537;-67
2023/10/01 07:18:30;;;;;;;;;21.67;18.33;;;;;17.05;69.94;101951.63;5117651;27;45546;-67
2023/10/01 07:21:00;;;;;;;;;18.00;18.00;;;;;17.05;69.78;101951.63;5118335;27;46391;-66
2023/10/01 07:23:26;;;;;;;;;27.67;21.00;;;;;17.12;69.91;101955.97;5118310;27;45497;-66
2023/10/01 07:26:03;;;;;;;;;25.67;18.67;;;;;17.11;69.85;101945.44;5117909;27;45416;-69
2023/10/01 07:28:30;;;;;;;;;27.00;22.33;;;;;17.21;69.20;101948.91;5134198;27;45392;-68
2023/10/01 07:31:01;;;;;;;;;37.00;31.33;;;;;17.33;68.86;101960.28;5116890;27;45479;-68
2023/10/01 07:33:31;;;;;;;;;33.33;26.67;;;;;17.34;69.07;101954.06;5118164;27;45512;-72
2023/10/01 07:35:59;;;;;;;;;37.00;31.00;;;;;17.43;68.95;101957.56;5117434;27;45305;-68
2023/10/01 07:38:26;;;;;;;;;36.33;29.00;;;;;17.44;69.51;101957.56;5103408;27;45552;-67
2023/10/01 07:40:57;;;;;;;;;32.67;24.33;;;;;17.43;68.86;101955.78;5118175;27;45500;-65
2023/10/01 07:43:30;;;;;;;;;28.00;23.00;;;;;17.32;69.00;101952.31;5117742;27;45388;-68
2023/10/01 07:45:58;;;;;;;;;28.67;21.67;;;;;17.46;69.08;101962.84;5103873;27;45311;-68
2023/10/01 07:48:27;;;;;;;;;34.00;23.00;;;;;17.48;68.72;101953.97;5110377;27;45528;-68
2023/10/01 07:50:55;;;;;;;;;24.00;21.00;;;;;17.57;68.43;101958.34;5119225;27;45602;-69
2023/10/01 07:53:23;;;;;;;;;23.00;22.67;;;;;17.57;68.41;101961.00;5117715;27;46289;-68
2023/10/01 07:55:48;;;;;;;;;19.67;17.67;;;;;17.75;68.21;101968.81;5102648;27;45383;-67
2023/10/01 07:58:24;;;;;;;;;34.33;20.33;;;;;17.89;67.86;101965.16;5097178;27;45322;-69
2023/10/01 08:00:59;;;;;;;;;35.00;27.67;;;;;17.91;67.62;101964.25;5102361;27;45348;-68
2023/10/01 08:06:05;;;;;;;;;42.00;34.67;;;;;17.95;67.77;101971.31;5115866;27;45485;-68
2023/10/01 08:08:47;;;;;;;;;35.33;30.00;;;;;18.14;67.10;101968.50;5098639;27;45317;-67
2023/10/01 08:13:57;;;;;;;;;31.00;25.33;;;;;18.20;66.81;101961.34;5117360;27;45388;-68
2023/10/01 08:16:24;;;;;;;;;37.00;30.33;;;;;18.27;66.71;101972.78;5110888;27;45565;-67
2023/10/01 08:18:57;;;;;;;;;27.67;23.00;;;;;18.34;66.29;101976.22;5119078;27;45440;-69
2023/10/01 08:21:36;;;;;;;;;28.00;21.00;;;;;18.29;66.29;101960.38;5113408;27;45361;-67
2023/10/01 08:24:09;;;;;;;;;24.33;21.33;;;;;18.48;65.48;101976.97;5117649;27;46230;-68
2023/10/01 08:26:43;;;;;;;;;26.00;20.00;;;;;18.52;66.11;101972.50;5116219;27;45515;-69
2023/10/01 08:29:09;;;;;;;;;25.33;19.00;;;;;18.60;65.54;101984.81;5117532;27;45465;-67
2023/10/01 08:32:08;;;;;;;;;31.67;21.67;;;;;18.60;65.67;101975.94;5117469;27;45413;-67
2023/10/01 08:34:29;;;;;;;;;19.67;16.33;;;;;18.84;65.23;101978.34;5117985;27;45975;-68
2023/10/01 08:36:57;;;;;;;;;20.33;18.00;;;;;18.95;64.80;101969.38;5115866;27;45700;-66
2023/10/01 08:42:22;;;;;;;;;17.67;13.00;;;;;19.15;64.04;101967.31;5117324;27;45258;-64
2023/10/01 08:44:51;;;;;;;;;17.33;16.33;;;;;19.31;63.85;101975.06;5113200;27;46939;-65
2023/10/01 08:47:28;;;;;;;;;26.67;18.67;;;;;19.21;64.01;101967.22;5116562;27;45679;-67
2023/10/01 08:50:15;;;;;;;;;22.00;19.00;;;;;19.33;63.69;101973.25;5116269;27;45526;-65
2023/10/01 08:52:52;;;;;;;;;20.67;17.33;;;;;19.51;63.41;101977.44;5106082;27;45422;-66
2023/10/01 08:55:35;;;;;;;;;19.33;19.00;;;;;19.57;62.76;101970.22;5103512;27;46135;-66
2023/10/01 08:58:14;;;;;;;;;20.67;18.33;;;;;19.32;63.13;101926.38;5103444;27;45256;-68
2023/10/01 09:00:52;;;;;;;;;29.00;23.00;;;;;19.28;62.97;101906.91;5112625;27;45582;-67
2023/10/01 09:03:34;;;;;;;;;19.00;15.67;;;;;19.60;62.93;101963.97;5105612;27;45517;-67
2023/10/01 09:06:24;;;;;;;;;22.67;18.00;;;;;19.82;62.21;101980.50;5116752;27;45570;-67
2023/10/01 09:08:54;;;;;;;;;21.67;18.67;;;;;19.72;62.75;101963.84;5109075;27;45706;-67
2023/10/01 09:11:45;;;;;;;;;26.33;20.67;;;;;19.36;62.76;101883.78;5114159;27;45411;-67
2023/10/01 09:14:21;;;;;;;;;21.33;18.67;;;;;19.90;62.44;101946.69;5117684;27;45635;-67
2023/10/01 09:17:07;;;;;;;;;22.00;17.00;;;;;20.13;61.87;101965.75;5107225;27;46350;-67
2023/10/01 09:19:50;;;;;;;;;17.67;15.33;;;;;20.14;61.51;101950.66;5117243;27;45606;-67
2023/10/01 09:22:16;;;;;;;;;20.33;20.33;;;;;20.43;61.12;101970.53;5120069;27;45510;-67
2023/10/01 09:24:55;;;;;;;;;19.33;18.00;;;;;20.67;60.64;101988.72;5117003;27;45603;-67
2023/10/01 09:27:30;;;;;;;;;18.67;14.00;;;;;20.50;60.27;101932.22;5120034;27;45652;-67
2023/10/01 09:30:31;;;;;;;;;20.67;17.00;;;;;20.70;60.06;101945.19;5119618;27;45581;-67
2023/10/01 09:33:04;;;;;;;;;15.67;13.67;;;;;20.03;60.15;101817.03;5111784;27;45470;-66
2023/10/01 09:35:56;;;;;;;;;15.33;15.33;;;;;20.71;59.96;101929.16;5127105;27;45584;-68
2023/10/01 09:38:27;;;;;;;;;23.67;19.33;;;;;21.02;59.83;101962.25;5118900;27;45632;-68
2023/10/01 09:40:57;;;;;;;;;23.33;18.33;;;;;21.11;60.00;101965.56;5119404;27;45410;-68
2023/10/01 09:43:27;;;;;;;;;26.00;19.00;;;;;21.31;59.71;101966.94;5118741;27;45337;-67
2023/10/01 09:45:54;;;;;;;;;24.00;16.00;;;;;21.52;59.11;101962.88;5118691;27;45601;-68
2023/10/01 09:48:29;;;;;;;;;30.00;20.00;;;;;21.24;58.57;101886.25;5119803;27;46194;-67
2023/10/01 09:51:14;;;;;;;;;21.67;20.33;;;;;21.82;58.39;101966.59;5120081;27;45352;-69
2023/10/01 09:53:56;;;;;;;;;19.33;15.67;;;;;21.30;58.70;101869.22;5115255;27;45556;-67
2023/10/01 09:56:27;;;;;;;;;25.33;18.33;;;;;21.98;57.38;101935.94;5108631;27;45448;-67
2023/10/01 09:59:08;;;;;;;;;20.33;17.33;;;;;21.97;57.18;101923.53;5105146;27;46516;-68
2023/10/01 10:01:35;;;;;;;;;23.67;19.67;;;;;21.59;57.20;101829.44;5121038;27;45310;-68
2023/10/01 10:04:10;;;;;;;;;23.00;17.00;;;;;22.44;56.57;101940.03;5109013;27;45451;-67
2023/10/01 10:06:42;;;;;;;;;20.67;15.67;;;;;22.77;55.59;101947.13;5114089;27;45411;-69
2023/10/01 10:09:26;;;;;;;;;18.67;15.67;;;;;23.04;55.37;101945.44;5107260;27;45517;-68
2023/10/01 10:11:52;;;;;;;;;19.00;14.00;;;;;23.11;54.58;101933.63;5118841;27;45724;-69
2023/10/01 10:14:25;;;;;;;;;19.67;15.33;;;;;23.42;54.27;101943.34;5120029;27;45442;-70
2023/10/01 10:16:57;;;;;;;;;23.67;17.33;;;;;23.40;53.34;101897.97;5119608;27;46014;-70
2023/10/01 10:19:22;;;;;;;;;26.00;19.67;;;;;23.73;52.59;101945.00;5119092;27;46242;-69
2023/10/01 10:24:37;;;;;;;;;23.67;19.33;;;;;24.16;51.64;101920.34;5116449;27;45530;-69
2023/10/01 10:27:08;;;;;;;;;20.33;19.33;;;;;24.61;52.09;101921.41;5111553;27;45575;-69
2023/10/01 10:30:14;;;;;;;;;20.67;14.00;;;;;25.24;50.41;101925.19;5120271;27;45421;-70
2023/10/01 10:32:44;;;;;;;;;20.33;13.33;;;;;25.29;49.87;101868.69;5119358;27;45174;-69
2023/10/01 10:35:14;;;;;;;;;16.33;11.00;;;;;26.10;48.99;101907.25;5111159;27;45563;-69
2023/10/01 10:37:53;;;;;;;;;14.00;13.33;;;;;26.58;47.35;101923.00;5106205;27;45274;-69
2023/10/01 10:42:57;;;;;;;;;15.50;13.00;;;;;27.73;44.54;101905.75;5119073;27;45601;-69
2023/10/01 10:45:31;;;;;;;;;14.50;12.50;;;;;30.00;39.46;101911.03;5100770;27;45441;-71
2023/10/01 10:48:07;;;;;;;;;15.25;13.75;;;;;31.45;36.40;101871.06;5113843;27;45543;-68
2023/10/01 10:50:50;;;;;;;;;14.50;13.00;;;;;32.62;35.45;101884.50;5098216;27;45545;-69
2023/10/01 10:53:39;;;;;;;;;10.80;10.00;;;;;34.33;33.02;101882.34;5108824;27;45416;-70
2023/10/01 10:56:10;;;;;;;;;15.00;13.25;;;;;35.57;31.42;101873.84;5113352;27;45361;-69
2023/10/01 10:58:53;;;;;;;;;16.75;14.00;;;;;36.06;29.96;101875.03;5107600;27;45446;-68
2023/10/01 11:01:20;;;;;;;;;11.60;10.20;;;;;36.69;29.05;101844.88;5106350;27;45455;-69
2023/10/01 11:03:57;;;;;;;;;11.40;11.00;;;;;37.75;27.98;101865.00;5113198;27;45566;-71
2023/10/01 11:06:42;;;;;;;;;12.60;11.40;;;;;38.19;27.85;101871.66;5104697;27;45604;-70
2023/10/01 11:09:26;;;;;;;;;14.60;10.80;;;;;38.54;26.87;101872.81;5115351;27;45450;-70
2023/10/01 11:12:04;;;;;;;;;14.60;10.40;;;;;38.05;26.64;101872.16;5117857;27;47781;-70
2023/10/01 11:14:30;;;;;;;;;11.60;10.00;;;;;38.39;26.44;101838.72;5118589;27;45282;-70
2023/10/01 11:16:56;;;;;;;;;13.60;12.60;;;;;38.69;25.73;101864.94;5118705;27;45468;-69
2023/10/01 11:19:27;;;;;;;;;9.25;7.00;;;;;39.26;25.00;101869.28;5111083;27;45382;-68
2023/10/01 11:22:00;;;;;;;;;12.20;10.40;;;;;39.09;24.85;101868.28;5118619;27;46741;-70
2023/10/01 11:24:39;;;;;;;;;14.00;10.20;;;;;38.86;25.61;101849.53;5101140;27;45543;-70
2023/10/01 11:27:18;;;;;;;;;15.20;11.00;;;;;40.16;24.55;101870.78;5112918;27;45395;-70
2023/10/01 11:30:00;;;;;;;;;14.20;11.00;;;;;40.63;23.81;101844.75;5124182;27;45556;-70
2023/10/01 11:33:12;;;;;;;;;14.60;12.40;;;;;41.26;22.91;101854.31;5117969;27;45509;-68
2023/10/01 11:36:09;;;;;;;;;16.20;14.60;;;;;41.41;22.33;101858.09;5115398;27;45490;-71
2023/10/01 11:38:35;;;;;;;;;13.00;12.20;;;;;41.36;22.66;101859.63;5097874;27;45313;-71
2023/10/01 11:41:09;;;;;;;;;19.40;12.20;;;;;40.68;23.40;101845.13;5114478;27;45415;-69
2023/10/01 11:43:58;;;;;;;;;13.40;12.00;;;;;40.33;23.12;101854.44;5114224;27;46314;-69
2023/10/01 11:46:29;;;;;;;;;14.00;12.40;;;;;39.86;23.44;101847.50;5114090;27;45581;-69
2023/10/01 11:49:17;;;;;;;;;9.20;8.60;;;;;38.94;23.97;101849.66;5107383;27;45333;-69
2023/10/01 11:52:01;;;;;;;;;9.60;7.40;;;;;38.63;24.92;101840.91;5113700;27;45738;-68
2023/10/01 11:54:45;;;;;;;;;8.80;7.60;;;;;38.11;25.47;101830.53;5114828;27;45586;-68
2023/10/01 11:57:24;;;;;;;;;13.60;12.00;;;;;38.05;25.41;101839.31;5114224;27;45452;-69
2023/10/01 11:59:56;;;;;;;;;11.80;9.80;;;;;37.05;26.04;101829.66;5116692;27;45576;-70
2023/10/01 12:02:33;;;;;;;;;13.60;10.20;;;;;36.32;27.05;101850.06;5111840;27;45534;-70
2023/10/01 12:05:09;;;;;;;;;10.20;8.80;;;;;35.67;28.00;101826.66;5104828;27;46800;-68
2023/10/01 12:07:45;;;;;;;;;12.60;10.20;;;;;35.47;28.07;101825.59;5117250;27;45338;-71
2023/10/01 12:12:59;;;;;;;;;11.40;11.00;;;;;34.61;29.10;101766.72;5117710;27;45400;-71
2023/10/01 12:15:34;;;;;;;;;19.80;14.00;;;;;34.66;29.06;101828.91;5110230;27;46392;-68